sensor_id;sensor_type;location;lat;lon;timestamp;pressure;altitude;pressure_sealevel;temperature;humidity
69717;BME280;65362;46.144;19.666;2022-12-18T00:01:27;101487.63;;;22.40;42.58
69717;BME280;65362;46.144;19.666;2022-12-18T00:03:56;101492.19;;;22.41;42.84
69717;BME280;65362;46.144;19.666;2022-12-18T00:06:25;101500.59;;;22.39;42.88
69717;BME280;65362;46.144;19.666;2022-12-18T00:08:55;101503.88;;;22.44;42.96
69717;BME280;65362;46.144;19.666;2022-12-18T00:11:25;101504.84;;;22.43;43.18
69717;BME280;65362;46.144;19.666;2022-12-18T00:13:55;101510.13;;;22.46;43.09
69717;BME280;65362;46.144;19.666;2022-12-18T00:16:24;101521.19;;;22.46;42.75
69717;BME280;65362;46.144;19.666;2022-12-18T00:18:54;101519.44;;;22.45;42.98
69717;BME280;65362;46.144;19.666;2022-12-18T00:21:22;101526.75;;;22.46;42.88
69717;BME280;65362;46.144;19.666;2022-12-18T00:23:50;101524.81;;;22.47;43.26
69717;BME280;65362;46.144;19.666;2022-12-18T00:26:29;101527.31;;;22.50;43.02
69717;BME280;65362;46.144;19.666;2022-12-18T00:29:02;101537.38;;;22.51;43.12
69717;BME280;65362;46.144;19.666;2022-12-18T00:31:32;101538.66;;;22.47;42.96
69717;BME280;65362;46.144;19.666;2022-12-18T00:34:00;101539.44;;;22.49;43.01
69717;BME280;65362;46.144;19.666;2022-12-18T00:36:31;101549.47;;;22.50;42.79
69717;BME280;65362;46.144;19.666;2022-12-18T00:39:01;101560.38;;;22.51;43.03
69717;BME280;65362;46.144;19.666;2022-12-18T00:41:29;101563.03;;;22.53;43.09
69717;BME280;65362;46.144;19.666;2022-12-18T00:44:17;101566.53;;;22.55;43.11
69717;BME280;65362;46.144;19.666;2022-12-18T00:46:46;101565.78;;;22.53;42.77
69717;BME280;65362;46.144;19.666;2022-12-18T00:49:19;101566.38;;;22.56;42.74
69717;BME280;65362;46.144;19.666;2022-12-18T00:51:47;101567.41;;;22.55;43.26
69717;BME280;65362;46.144;19.666;2022-12-18T00:54:15;101567.28;;;22.57;43.24
69717;BME280;65362;46.144;19.666;2022-12-18T00:56:44;101579.50;;;22.54;43.28
69717;BME280;65362;46.144;19.666;2022-12-18T00:59:17;101576.31;;;22.59;43.14
69717;BME280;65362;46.144;19.666;2022-12-18T01:01:45;101584.63;;;22.59;43.17
69717;BME280;65362;46.144;19.666;2022-12-18T01:04:13;101583.72;;;22.58;43.33
69717;BME280;65362;46.144;19.666;2022-12-18T01:06:45;101589.84;;;22.62;43.06
69717;BME280;65362;46.144;19.666;2022-12-18T01:09:13;101583.59;;;22.60;42.49
69717;BME280;65362;46.144;19.666;2022-12-18T01:11:41;101591.78;;;22.61;42.71
69717;BME280;65362;46.144;19.666;2022-12-18T01:14:10;101582.88;;;22.58;43.09
69717;BME280;65362;46.144;19.666;2022-12-18T01:16:38;101582.88;;;22.58;42.61
69717;BME280;65362;46.144;19.666;2022-12-18T01:19:05;101589.44;;;22.57;42.62
69717;BME280;65362;46.144;19.666;2022-12-18T01:21:33;101592.94;;;22.59;42.69
69717;BME280;65362;46.144;19.666;2022-12-18T01:24:04;101587.25;;;22.60;42.54
69717;BME280;65362;46.144;19.666;2022-12-18T01:26:32;101594.53;;;22.61;42.99
69717;BME280;65362;46.144;19.666;2022-12-18T01:28:59;101599.78;;;22.64;43.34
69717;BME280;65362;46.144;19.666;2022-12-18T01:31:30;101598.75;;;22.65;43.05
69717;BME280;65362;46.144;19.666;2022-12-18T01:34:00;101600.50;;;22.66;43.07
69717;BME280;65362;46.144;19.666;2022-12-18T01:36:30;101599.66;;;22.66;43.34
69717;BME280;65362;46.144;19.666;2022-12-18T01:39:04;101597.59;;;22.68;43.10
69717;BME280;65362;46.144;19.666;2022-12-18T01:41:33;101607.66;;;22.69;43.39
69717;BME280;65362;46.144;19.666;2022-12-18T01:49:56;101622.41;;;22.69;42.99
69717;BME280;65362;46.144;19.666;2022-12-18T01:52:26;101615.84;;;22.70;43.11
69717;BME280;65362;46.144;19.666;2022-12-18T01:54:56;101623.97;;;22.72;43.05
69717;BME280;65362;46.144;19.666;2022-12-18T01:57:26;101620.22;;;22.73;43.26
69717;BME280;65362;46.144;19.666;2022-12-18T01:59:59;101623.00;;;22.73;42.99
69717;BME280;65362;46.144;19.666;2022-12-18T02:02:41;101631.13;;;22.74;43.35
69717;BME280;65362;46.144;19.666;2022-12-18T02:05:10;101629.25;;;22.75;42.88
69717;BME280;65362;46.144;19.666;2022-12-18T02:07:49;101638.44;;;22.75;42.74
69717;BME280;65362;46.144;19.666;2022-12-18T02:19:00;101661.06;;;22.80;42.70
69717;BME280;65362;46.144;19.666;2022-12-18T02:21:57;101667.31;;;22.82;42.59
69717;BME280;65362;46.144;19.666;2022-12-18T02:24:42;101667.31;;;22.82;43.19
69717;BME280;65362;46.144;19.666;2022-12-18T02:27:13;101664.41;;;22.84;43.18
69717;BME280;65362;46.144;19.666;2022-12-18T02:29:50;101671.84;;;22.83;43.12
69717;BME280;65362;46.144;19.666;2022-12-18T02:32:31;101669.81;;;22.85;42.67
69717;BME280;65362;46.144;19.666;2022-12-18T02:35:01;101664.13;;;22.87;42.95
69717;BME280;65362;46.144;19.666;2022-12-18T02:37:32;101666.88;;;22.87;42.66
69717;BME280;65362;46.144;19.666;2022-12-18T02:40:04;101664.88;;;22.89;42.50
69717;BME280;65362;46.144;19.666;2022-12-18T02:42:34;101671.13;;;22.91;42.79
69717;BME280;65362;46.144;19.666;2022-12-18T02:45:05;101669.22;;;22.91;42.86
69717;BME280;65362;46.144;19.666;2022-12-18T02:47:41;101680.31;;;22.91;42.79
69717;BME280;65362;46.144;19.666;2022-12-18T02:55:28;101690.22;;;22.94;42.50
69717;BME280;65362;46.144;19.666;2022-12-18T03:01:06;101690.22;;;22.94;42.48
69717;BME280;65362;46.144;19.666;2022-12-18T03:03:46;101693.00;;;22.94;42.69
69717;BME280;65362;46.144;19.666;2022-12-18T03:06:23;101698.41;;;22.95;42.69
69717;BME280;65362;46.144;19.666;2022-12-18T03:08:53;101702.22;;;22.94;42.77
69717;BME280;65362;46.144;19.666;2022-12-18T03:11:26;101697.41;;;22.96;42.87
69717;BME280;65362;46.144;19.666;2022-12-18T03:14:16;101695.34;;;22.98;42.44
69717;BME280;65362;46.144;19.666;2022-12-18T03:16:47;101700.88;;;22.98;42.64
69717;BME280;65362;46.144;19.666;2022-12-18T03:19:21;101693.47;;;22.99;42.92
69717;BME280;65362;46.144;19.666;2022-12-18T03:21:54;101700.75;;;23.00;42.57
69717;BME280;65362;46.144;19.666;2022-12-18T03:24:26;101708.03;;;23.01;42.48
69717;BME280;65362;46.144;19.666;2022-12-18T03:27:10;101706.88;;;23.03;42.56
69717;BME280;65362;46.144;19.666;2022-12-18T03:29:50;101713.28;;;23.04;42.86
69717;BME280;65362;46.144;19.666;2022-12-18T03:32:35;101724.25;;;23.05;42.86
69717;BME280;65362;46.144;19.666;2022-12-18T03:35:07;101728.75;;;23.06;42.55
69717;BME280;65362;46.144;19.666;2022-12-18T03:37:37;101733.28;;;23.07;42.74
69717;BME280;65362;46.144;19.666;2022-12-18T03:40:08;101729.50;;;23.08;42.40
69717;BME280;65362;46.144;19.666;2022-12-18T03:45:18;101733.28;;;23.07;42.50
69717;BME280;65362;46.144;19.666;2022-12-18T03:48:06;101740.56;;;23.08;42.56
69717;BME280;65362;46.144;19.666;2022-12-18T03:50:45;101736.94;;;23.08;42.30
69717;BME280;65362;46.144;19.666;2022-12-18T03:53:41;101731.28;;;23.09;42.31
69717;BME280;65362;46.144;19.666;2022-12-18T03:56:16;101742.06;;;23.12;42.71
69717;BME280;65362;46.144;19.666;2022-12-18T03:58:45;101742.06;;;23.12;42.51
69717;BME280;65362;46.144;19.666;2022-12-18T04:01:20;101757.66;;;23.13;42.50
69717;BME280;65362;46.144;19.666;2022-12-18T04:03:51;101759.44;;;23.14;42.84
69717;BME280;65362;46.144;19.666;2022-12-18T04:06:20;101765.00;;;23.14;42.39
69717;BME280;65362;46.144;19.666;2022-12-18T04:08:48;101769.66;;;23.14;42.35
69717;BME280;65362;46.144;19.666;2022-12-18T04:11:20;101779.75;;;23.15;42.62
69717;BME280;65362;46.144;19.666;2022-12-18T04:13:48;101778.72;;;23.16;42.15
69717;BME280;65362;46.144;19.666;2022-12-18T04:16:22;101779.75;;;23.15;42.58
69717;BME280;65362;46.144;19.666;2022-12-18T04:18:53;101782.34;;;23.16;42.63
69717;BME280;65362;46.144;19.666;2022-12-18T04:21:23;101786.16;;;23.15;42.44
69717;BME280;65362;46.144;19.666;2022-12-18T04:23:52;101792.28;;;23.19;42.56
69717;BME280;65362;46.144;19.666;2022-12-18T04:26:22;101794.22;;;23.18;42.25
69717;BME280;65362;46.144;19.666;2022-12-18T04:29:07;101806.16;;;23.19;42.31
69717;BME280;65362;46.144;19.666;2022-12-18T04:31:35;101800.59;;;23.19;42.56
69717;BME280;65362;46.144;19.666;2022-12-18T04:34:03;101801.50;;;23.19;42.48
69717;BME280;65362;46.144;19.666;2022-12-18T04:36:37;101806.03;;;23.20;42.68
69717;BME280;65362;46.144;19.666;2022-12-18T04:39:04;101810.53;;;23.21;42.72
69717;BME280;65362;46.144;19.666;2022-12-18T04:41:32;101812.28;;;23.22;42.61
69717;BME280;65362;46.144;19.666;2022-12-18T04:44:00;101819.75;;;23.22;42.34
69717;BME280;65362;46.144;19.666;2022-12-18T04:46:28;101826.16;;;23.22;42.11
69717;BME280;65362;46.144;19.666;2022-12-18T04:48:55;101828.06;;;23.22;42.60
69717;BME280;65362;46.144;19.666;2022-12-18T04:51:23;101823.38;;;23.22;42.23
69717;BME280;65362;46.144;19.666;2022-12-18T04:53:53;101828.94;;;23.22;42.67
69717;BME280;65362;46.144;19.666;2022-12-18T04:56:21;101821.50;;;23.23;42.49
69717;BME280;65362;46.144;19.666;2022-12-18T04:58:49;101821.50;;;23.23;42.17
69717;BME280;65362;46.144;19.666;2022-12-18T05:01:18;101812.28;;;23.22;42.62
69717;BME280;65362;46.144;19.666;2022-12-18T05:03:46;101826.88;;;23.24;42.38
69717;BME280;65362;46.144;19.666;2022-12-18T05:06:14;101830.56;;;23.25;42.33
69717;BME280;65362;46.144;19.666;2022-12-18T05:08:41;101838.75;;;23.26;42.35
69717;BME280;65362;46.144;19.666;2022-12-18T05:11:11;101837.13;;;23.24;42.29
69717;BME280;65362;46.144;19.666;2022-12-18T05:13:39;101831.56;;;23.24;42.51
69717;BME280;65362;46.144;19.666;2022-12-18T05:16:08;101836.81;;;23.27;42.43
69717;BME280;65362;46.144;19.666;2022-12-18T05:18:36;101837.72;;;23.27;42.33
69717;BME280;65362;46.144;19.666;2022-12-18T05:21:04;101852.72;;;23.25;42.32
69717;BME280;65362;46.144;19.666;2022-12-18T05:23:34;101860.03;;;23.26;42.37
69717;BME280;65362;46.144;19.666;2022-12-18T05:26:04;101865.44;;;23.27;42.35
69717;BME280;65362;46.144;19.666;2022-12-18T05:28:34;101868.22;;;23.27;42.25
69717;BME280;65362;46.144;19.666;2022-12-18T05:31:03;101873.75;;;23.27;42.52
69717;BME280;65362;46.144;19.666;2022-12-18T05:33:32;101882.81;;;23.29;42.50
69717;BME280;65362;46.144;19.666;2022-12-18T05:36:01;101875.63;;;23.27;42.08
69717;BME280;65362;46.144;19.666;2022-12-18T05:38:31;101880.16;;;23.28;42.37
69717;BME280;65362;46.144;19.666;2022-12-18T05:40:58;101883.97;;;23.27;42.16
69717;BME280;65362;46.144;19.666;2022-12-18T05:43:26;101886.59;;;23.28;42.12
69717;BME280;65362;46.144;19.666;2022-12-18T05:45:54;101893.16;;;23.27;42.16
69717;BME280;65362;46.144;19.666;2022-12-18T05:48:23;101892.16;;;23.28;42.17
69717;BME280;65362;46.144;19.666;2022-12-18T05:50:50;101893.00;;;23.29;42.01
69717;BME280;65362;46.144;19.666;2022-12-18T05:53:20;101897.69;;;23.28;42.05
69717;BME280;65362;46.144;19.666;2022-12-18T05:55:47;101905.13;;;23.28;42.17
69717;BME280;65362;46.144;19.666;2022-12-18T05:58:15;101899.56;;;23.28;42.01
69717;BME280;65362;46.144;19.666;2022-12-18T06:00:45;101902.34;;;23.28;42.27
69717;BME280;65362;46.144;19.666;2022-12-18T06:03:13;101904.09;;;23.29;42.05
69717;BME280;65362;46.144;19.666;2022-12-18T06:05:44;101913.31;;;23.29;42.16
69717;BME280;65362;46.144;19.666;2022-12-18T06:08:13;101909.94;;;23.26;42.34
69717;BME280;65362;46.144;19.666;2022-12-18T06:10:41;101910.97;;;23.25;42.21
69717;BME280;65362;46.144;19.666;2022-12-18T06:13:08;101914.63;;;23.25;42.45
69717;BME280;65362;46.144;19.666;2022-12-18T06:15:36;101916.38;;;23.26;42.35
69717;BME280;65362;46.144;19.666;2022-12-18T06:18:04;101920.00;;;23.27;42.25
69717;BME280;65362;46.144;19.666;2022-12-18T06:20:32;101921.91;;;23.26;42.36
69717;BME280;65362;46.144;19.666;2022-12-18T06:23:00;101915.59;;;23.24;42.24
69717;BME280;65362;46.144;19.666;2022-12-18T06:25:28;101921.16;;;23.24;42.09
69717;BME280;65362;46.144;19.666;2022-12-18T06:27:55;101925.72;;;23.25;42.07
69717;BME280;65362;46.144;19.666;2022-12-18T06:30:23;101929.34;;;23.26;42.38
69717;BME280;65362;46.144;19.666;2022-12-18T06:32:50;101933.00;;;23.26;42.48
69717;BME280;65362;46.144;19.666;2022-12-18T06:35:23;101940.44;;;23.26;42.24
69717;BME280;65362;46.144;19.666;2022-12-18T06:37:50;101942.19;;;23.27;42.34
69717;BME280;65362;46.144;19.666;2022-12-18T06:40:18;101940.16;;;23.29;41.94
69717;BME280;65362;46.144;19.666;2022-12-18T06:42:46;101946.72;;;23.28;42.00
69717;BME280;65362;46.144;19.666;2022-12-18T06:45:13;101939.28;;;23.28;41.95
69717;BME280;65362;46.144;19.666;2022-12-18T06:47:41;101948.63;;;23.27;41.97
69717;BME280;65362;46.144;19.666;2022-12-18T06:50:09;101961.47;;;23.28;41.99
69717;BME280;65362;46.144;19.666;2022-12-18T06:52:36;101966.00;;;23.29;42.07
69717;BME280;65362;46.144;19.666;2022-12-18T06:55:05;101974.44;;;23.28;42.37
69717;BME280;65362;46.144;19.666;2022-12-18T06:57:32;101976.19;;;23.29;41.98
69717;BME280;65362;46.144;19.666;2022-12-18T07:00:00;101980.75;;;23.30;42.33
69717;BME280;65362;46.144;19.666;2022-12-18T07:02:27;101981.63;;;23.30;42.04
69717;BME280;65362;46.144;19.666;2022-12-18T07:04:55;101987.44;;;23.27;42.38
69717;BME280;65362;46.144;19.666;2022-12-18T07:07:22;101993.00;;;23.27;42.18
69717;BME280;65362;46.144;19.666;2022-12-18T07:09:50;102002.34;;;23.26;42.42
69717;BME280;65362;46.144;19.666;2022-12-18T07:12:18;101998.66;;;23.26;42.37
69717;BME280;65362;46.144;19.666;2022-12-18T07:14:45;102003.91;;;23.29;42.70
69717;BME280;65362;46.144;19.666;2022-12-18T07:17:13;102006.69;;;23.29;42.35
69717;BME280;65362;46.144;19.666;2022-12-18T07:19:40;102003.06;;;23.28;42.72
69717;BME280;65362;46.144;19.666;2022-12-18T07:22:08;102004.69;;;23.31;42.57
69717;BME280;65362;46.144;19.666;2022-12-18T07:24:35;102005.53;;;23.31;42.63
69717;BME280;65362;46.144;19.666;2022-12-18T07:27:03;102009.34;;;23.30;42.95
69717;BME280;65362;46.144;19.666;2022-12-18T07:29:30;102011.81;;;23.33;42.67
69717;BME280;65362;46.144;19.666;2022-12-18T07:31:58;102019.28;;;23.33;43.23
69717;BME280;65362;46.144;19.666;2022-12-18T07:34:25;102022.06;;;23.33;43.47
69717;BME280;65362;46.144;19.666;2022-12-18T07:36:53;102023.69;;;23.35;43.82
69717;BME280;65362;46.144;19.666;2022-12-18T07:39:20;102027.31;;;23.36;43.79
69717;BME280;65362;46.144;19.666;2022-12-18T07:41:48;102045.88;;;23.35;43.38
69717;BME280;65362;46.144;19.666;2022-12-18T07:44:36;102045.59;;;23.38;43.45
69717;BME280;65362;46.144;19.666;2022-12-18T07:47:04;102047.63;;;23.36;44.00
69717;BME280;65362;46.144;19.666;2022-12-18T07:49:38;102048.47;;;23.37;43.49
69717;BME280;65362;46.144;19.666;2022-12-18T07:52:06;102057.22;;;23.32;43.61
69717;BME280;65362;46.144;19.666;2022-12-18T07:54:33;102069.50;;;23.30;43.35
69717;BME280;65362;46.144;19.666;2022-12-18T07:57:01;102069.22;;;23.33;43.42
69717;BME280;65362;46.144;19.666;2022-12-18T07:59:28;102065.53;;;23.32;43.75
69717;BME280;65362;46.144;19.666;2022-12-18T08:01:56;102069.06;;;23.34;43.16
69717;BME280;65362;46.144;19.666;2022-12-18T08:04:24;102074.75;;;23.33;43.35
69717;BME280;65362;46.144;19.666;2022-12-18T08:06:52;102076.50;;;23.34;43.45
69717;BME280;65362;46.144;19.666;2022-12-18T08:09:20;102076.78;;;23.31;43.30
69717;BME280;65362;46.144;19.666;2022-12-18T08:11:47;102084.50;;;23.27;43.20
69717;BME280;65362;46.144;19.666;2022-12-18T08:14:15;102092.94;;;23.26;43.15
69717;BME280;65362;46.144;19.666;2022-12-18T08:16:42;102091.47;;;23.22;42.72
69717;BME280;65362;46.144;19.666;2022-12-18T08:19:10;102102.41;;;23.23;42.73
69717;BME280;65362;46.144;19.666;2022-12-18T08:21:41;102094.25;;;23.22;42.25
69717;BME280;65362;46.144;19.666;2022-12-18T08:24:09;102105.47;;;23.20;42.33
69717;BME280;65362;46.144;19.666;2022-12-18T08:26:36;102111.13;;;23.19;42.75
69717;BME280;65362;46.144;19.666;2022-12-18T08:29:04;102113.03;;;23.18;42.59
69717;BME280;65362;46.144;19.666;2022-12-18T08:31:31;102120.59;;;23.16;43.03
69717;BME280;65362;46.144;19.666;2022-12-18T08:34:00;102120.59;;;23.16;42.90
69717;BME280;65362;46.144;19.666;2022-12-18T08:36:27;102129.16;;;23.13;43.12
69717;BME280;65362;46.144;19.666;2022-12-18T08:38:56;102131.94;;;23.13;42.63
69717;BME280;65362;46.144;19.666;2022-12-18T08:41:26;102124.63;;;23.12;43.19
69717;BME280;65362;46.144;19.666;2022-12-18T08:43:53;102122.72;;;23.13;43.35
69717;BME280;65362;46.144;19.666;2022-12-18T08:46:42;102124.91;;;23.09;43.44
69717;BME280;65362;46.144;19.666;2022-12-18T08:49:11;102125.88;;;23.08;43.21
69717;BME280;65362;46.144;19.666;2022-12-18T08:51:39;102122.25;;;23.08;43.16
69717;BME280;65362;46.144;19.666;2022-12-18T08:54:07;102121.34;;;23.07;43.04
69717;BME280;65362;46.144;19.666;2022-12-18T08:56:34;102117.56;;;23.08;43.09
69717;BME280;65362;46.144;19.666;2022-12-18T08:59:02;102124.28;;;23.06;43.43
69717;BME280;65362;46.144;19.666;2022-12-18T09:01:30;102119.72;;;23.05;43.40
69717;BME280;65362;46.144;19.666;2022-12-18T09:03:58;102125.03;;;23.08;43.43
69717;BME280;65362;46.144;19.666;2022-12-18T09:06:25;102127.94;;;23.06;43.71
69717;BME280;65362;46.144;19.666;2022-12-18T09:08:53;102127.19;;;23.04;44.12
69717;BME280;65362;46.144;19.666;2022-12-18T09:11:23;102134.47;;;23.05;44.30
69717;BME280;65362;46.144;19.666;2022-12-18T09:13:52;102133.34;;;23.08;44.54
69717;BME280;65362;46.144;19.666;2022-12-18T09:16:22;102140.66;;;23.09;44.58
69717;BME280;65362;46.144;19.666;2022-12-18T09:18:59;102137.25;;;23.05;44.94
69717;BME280;65362;46.144;19.666;2022-12-18T09:21:29;102139.00;;;23.06;44.77
69717;BME280;65362;46.144;19.666;2022-12-18T09:23:58;102141.53;;;23.09;44.80
69717;BME280;65362;46.144;19.666;2022-12-18T09:26:26;102144.44;;;23.08;45.20
69717;BME280;65362;46.144;19.666;2022-12-18T09:28:54;102145.44;;;23.07;45.32
69717;BME280;65362;46.144;19.666;2022-12-18T09:31:23;102153.63;;;23.08;45.40
69717;BME280;65362;46.144;19.666;2022-12-18T09:33:51;102153.00;;;23.05;45.14
69717;BME280;65362;46.144;19.666;2022-12-18T09:36:19;102147.31;;;23.06;44.84
69717;BME280;65362;46.144;19.666;2022-12-18T09:38:48;102151.84;;;23.07;44.97
69717;BME280;65362;46.144;19.666;2022-12-18T09:46:53;102149.97;;;23.08;45.44
69717;BME280;65362;46.144;19.666;2022-12-18T09:49:26;102149.09;;;23.07;45.08
69717;BME280;65362;46.144;19.666;2022-12-18T09:51:57;102146.59;;;23.04;45.29
69717;BME280;65362;46.144;19.666;2022-12-18T09:54:38;102143.69;;;23.06;45.36
69717;BME280;65362;46.144;19.666;2022-12-18T09:57:06;102138.28;;;23.04;45.27
69717;BME280;65362;46.144;19.666;2022-12-18T09:59:38;102140.03;;;23.05;44.93
69717;BME280;65362;46.144;19.666;2022-12-18T10:02:22;102132.59;;;23.06;44.99
69717;BME280;65362;46.144;19.666;2022-12-18T10:05:04;102136.53;;;23.03;44.81
69717;BME280;65362;46.144;19.666;2022-12-18T10:07:47;102128.94;;;23.05;44.79
69717;BME280;65362;46.144;19.666;2022-12-18T10:21:34;102115.47;;;23.01;44.34
69717;BME280;65362;46.144;19.666;2022-12-18T10:27:16;102109.03;;;23.00;44.62
69717;BME280;65362;46.144;19.666;2022-12-18T10:29:45;102105.41;;;23.00;44.52
69717;BME280;65362;46.144;19.666;2022-12-18T10:32:20;102109.19;;;22.99;44.26
69717;BME280;65362;46.144;19.666;2022-12-18T10:34:49;102112.72;;;23.01;44.35
69717;BME280;65362;46.144;19.666;2022-12-18T10:37:27;102110.06;;;22.99;44.44
69717;BME280;65362;46.144;19.666;2022-12-18T10:40:12;102105.41;;;23.00;44.33
69717;BME280;65362;46.144;19.666;2022-12-18T10:43:13;102110.06;;;22.99;44.15
69717;BME280;65362;46.144;19.666;2022-12-18T10:45:41;102101.50;;;23.02;44.55
69717;BME280;65362;46.144;19.666;2022-12-18T10:48:20;102099.88;;;23.00;44.34
69717;BME280;65362;46.144;19.666;2022-12-18T10:50:50;102100.72;;;23.00;44.49
69717;BME280;65362;46.144;19.666;2022-12-18T10:53:40;102101.75;;;22.99;44.62
69717;BME280;65362;46.144;19.666;2022-12-18T10:56:09;102095.34;;;22.99;44.43
69717;BME280;65362;46.144;19.666;2022-12-18T10:58:38;102099.88;;;23.00;44.15
69717;BME280;65362;46.144;19.666;2022-12-18T11:04:07;102093.31;;;23.01;44.08
69717;BME280;65362;46.144;19.666;2022-12-18T11:06:33;102095.19;;;23.00;43.51
69717;BME280;65362;46.144;19.666;2022-12-18T11:09:04;102103.09;;;23.05;43.35
69717;BME280;65362;46.144;19.666;2022-12-18T11:11:48;102101.34;;;23.04;43.73
69717;BME280;65362;46.144;19.666;2022-12-18T11:14:28;102098.94;;;23.10;43.41
69717;BME280;65362;46.144;19.666;2022-12-18T11:16:58;102093.34;;;23.21;43.13
69717;BME280;65362;46.144;19.666;2022-12-18T11:19:58;102094.25;;;23.22;43.15
69717;BME280;65362;46.144;19.666;2022-12-18T11:25:02;102089.84;;;23.40;42.48
69717;BME280;65362;46.144;19.666;2022-12-18T11:27:55;102092.94;;;23.26;42.66
69717;BME280;65362;46.144;19.666;2022-12-18T11:30:37;102096.13;;;23.21;42.73
69717;BME280;65362;46.144;19.666;2022-12-18T11:33:21;102099.31;;;23.17;42.76
69717;BME280;65362;46.144;19.666;2022-12-18T11:35:52;102098.66;;;23.13;42.87
69717;BME280;65362;46.144;19.666;2022-12-18T11:38:26;102093.41;;;23.10;42.59
69717;BME280;65362;46.144;19.666;2022-12-18T11:41:00;102104.72;;;23.07;43.04
69717;BME280;65362;46.144;19.666;2022-12-18T11:43:38;102114.06;;;23.06;42.69
69717;BME280;65362;46.144;19.666;2022-12-18T11:46:17;102114.47;;;23.02;42.60
69717;BME280;65362;46.144;19.666;2022-12-18T11:49:36;102108.91;;;23.02;42.99
69717;BME280;65362;46.144;19.666;2022-12-18T11:51:43;102107.28;;;22.99;43.00
69717;BME280;65362;46.144;19.666;2022-12-18T11:54:15;102111.81;;;23.00;42.84
69717;BME280;65362;46.144;19.666;2022-12-18T11:56:47;102118.25;;;23.01;42.67
69717;BME280;65362;46.144;19.666;2022-12-18T12:17:09;102107.06;;;22.91;42.51
69717;BME280;65362;46.144;19.666;2022-12-18T12:22:54;102099.66;;;22.92;42.43
69717;BME280;65362;46.144;19.666;2022-12-18T12:25:43;102106.06;;;22.92;42.36
69717;BME280;65362;46.144;19.666;2022-12-18T12:28:32;102097.16;;;22.89;42.76
69717;BME280;65362;46.144;19.666;2022-12-18T12:34:05;102091.63;;;22.89;42.23
69717;BME280;65362;46.144;19.666;2022-12-18T12:39:21;102086.94;;;22.89;42.29
69717;BME280;65362;46.144;19.666;2022-12-18T12:41:50;102080.38;;;22.90;42.50
69717;BME280;65362;46.144;19.666;2022-12-18T12:44:44;102079.66;;;22.88;42.18
69717;BME280;65362;46.144;19.666;2022-12-18T12:47:25;102085.19;;;22.88;42.69
69717;BME280;65362;46.144;19.666;2022-12-18T12:49:54;102094.50;;;22.87;42.13
69717;BME280;65362;46.144;19.666;2022-12-18T12:54:58;102091.88;;;22.86;42.09
69717;BME280;65362;46.144;19.666;2022-12-18T12:57:34;102102.09;;;22.85;42.11
69717;BME280;65362;46.144;19.666;2022-12-18T13:02:59;102103.69;;;22.88;42.17
69717;BME280;65362;46.144;19.666;2022-12-18T13:08:29;102103.97;;;22.85;42.31
69717;BME280;65362;46.144;19.666;2022-12-18T13:11:01;102106.75;;;22.85;41.83
69717;BME280;65362;46.144;19.666;2022-12-18T13:14:20;102107.47;;;22.87;42.10
69717;BME280;65362;46.144;19.666;2022-12-18T13:16:49;102105.84;;;22.84;41.90
69717;BME280;65362;46.144;19.666;2022-12-18T13:19:23;102117.81;;;22.85;41.83
69717;BME280;65362;46.144;19.666;2022-12-18T13:21:56;102116.94;;;22.84;41.68
69717;BME280;65362;46.144;19.666;2022-12-18T13:24:30;102123.47;;;22.83;41.70
69717;BME280;65362;46.144;19.666;2022-12-18T13:26:58;102132.81;;;22.82;41.60
69717;BME280;65362;46.144;19.666;2022-12-18T13:29:44;102130.94;;;22.83;41.93
69717;BME280;65362;46.144;19.666;2022-12-18T13:32:24;102130.03;;;22.82;41.99
69717;BME280;65362;46.144;19.666;2022-12-18T13:37:53;102137.63;;;22.80;41.48
69717;BME280;65362;46.144;19.666;2022-12-18T13:51:25;102157.41;;;22.76;41.54
69717;BME280;65362;46.144;19.666;2022-12-18T13:54:02;102162.94;;;22.76;41.47
69717;BME280;65362;46.144;19.666;2022-12-18T13:56:33;102160.06;;;22.77;41.54
69717;BME280;65362;46.144;19.666;2022-12-18T14:01:48;102169.34;;;22.76;41.65
69717;BME280;65362;46.144;19.666;2022-12-18T14:04:29;102169.22;;;22.78;41.65
69717;BME280;65362;46.144;19.666;2022-12-18T14:09:35;102168.50;;;22.76;41.31
69717;BME280;65362;46.144;19.666;2022-12-18T14:12:05;102181.31;;;22.77;41.66
69717;BME280;65362;46.144;19.666;2022-12-18T14:14:52;102174.03;;;22.76;41.58
69717;BME280;65362;46.144;19.666;2022-12-18T14:17:22;102185.97;;;22.76;41.82
69717;BME280;65362;46.144;19.666;2022-12-18T14:19:51;102185.97;;;22.76;41.75
69717;BME280;65362;46.144;19.666;2022-12-18T14:22:24;102185.97;;;22.76;41.83
69717;BME280;65362;46.144;19.666;2022-12-18T14:27:45;102197.22;;;22.75;42.10
69717;BME280;65362;46.144;19.666;2022-12-18T14:30:23;102193.44;;;22.76;42.26
69717;BME280;65362;46.144;19.666;2022-12-18T14:35:29;102180.59;;;22.75;42.25
69717;BME280;65362;46.144;19.666;2022-12-18T14:38:30;102187.75;;;22.77;42.16
69717;BME280;65362;46.144;19.666;2022-12-18T14:41:06;102188.63;;;22.78;41.72
69717;BME280;65362;46.144;19.666;2022-12-18T14:43:35;102189.63;;;22.77;42.14
69717;BME280;65362;46.144;19.666;2022-12-18T14:54:23;102206.16;;;22.78;41.98
69717;BME280;65362;46.144;19.666;2022-12-18T14:57:06;102212.81;;;22.76;42.02
69717;BME280;65362;46.144;19.666;2022-12-18T14:59:42;102213.69;;;22.76;42.46
69717;BME280;65362;46.144;19.666;2022-12-18T15:02:22;102216.47;;;22.76;41.85
69717;BME280;65362;46.144;19.666;2022-12-18T15:07:46;102212.72;;;22.77;42.36